sensor_id;sensor_type;location;lat;lon;timestamp;pressure;altitude;pressure_sealevel;temperature;humidity
38022;BME280;23832;43.216;27.946;2022-10-30T00:01:21;101533.66;;;17.20;100.00
38022;BME280;23832;43.216;27.946;2022-10-30T00:03:22;101527.91;;;17.17;100.00
38022;BME280;23832;43.216;27.946;2022-10-30T00:05:26;101528.88;;;17.16;100.00
38022;BME280;23832;43.216;27.946;2022-10-30T00:07:27;101528.25;;;17.14;100.00
38022;BME280;23832;43.216;27.946;2022-10-30T00:09:29;101524.97;;;17.12;100.00
38022;BME280;23832;43.216;27.946;2022-10-30T00:11:31;101521.69;;;17.10;100.00
38022;BME280;23832;43.216;27.946;2022-10-30T00:13:32;101520.41;;;17.06;100.00
38022;BME280;23832;43.216;27.946;2022-10-30T00:15:34;101527.16;;;17.01;100.00
38022;BME280;23832;43.216;27.946;2022-10-30T00:17:36;101524.91;;;16.98;100.00
38022;BME280;23832;43.216;27.946;2022-10-30T00:19:37;101518.09;;;16.96;100.00
38022;BME280;23832;43.216;27.946;2022-10-30T00:21:41;101512.13;;;16.94;100.00
38022;BME280;23832;43.216;27.946;2022-10-30T00:23:45;101506.38;;;16.90;100.00
38022;BME280;23832;43.216;27.946;2022-10-30T00:25:47;101506.75;;;16.87;100.00
38022;BME280;23832;43.216;27.946;2022-10-30T00:27:49;101504.28;;;16.86;100.00
38022;BME280;23832;43.216;27.946;2022-10-30T00:29:50;101501.00;;;16.84;100.00
38022;BME280;23832;43.216;27.946;2022-10-30T00:31:52;101499.72;;;16.80;100.00
38022;BME280;23832;43.216;27.946;2022-10-30T00:33:54;101505.25;;;16.78;100.00
38022;BME280;23832;43.216;27.946;2022-10-30T00:35:56;101504.19;;;16.72;100.00
38022;BME280;23832;43.216;27.946;2022-10-30T00:37:59;101504.56;;;16.69;100.00
38022;BME280;23832;43.216;27.946;2022-10-30T00:40:01;101498.78;;;16.66;100.00
38022;BME280;23832;43.216;27.946;2022-10-30T00:42:03;101503.47;;;16.64;100.00
38022;BME280;23832;43.216;27.946;2022-10-30T00:46:23;101498.91;;;16.58;100.00
38022;BME280;23832;43.216;27.946;2022-10-30T00:48:28;101493.78;;;16.56;100.00
38022;BME280;23832;43.216;27.946;2022-10-30T00:50:30;101495.00;;;16.54;100.00
38022;BME280;23832;43.216;27.946;2022-10-30T00:52:34;101496.19;;;16.51;100.00
38022;BME280;23832;43.216;27.946;2022-10-30T00:54:38;101492.06;;;16.49;100.00
38022;BME280;23832;43.216;27.946;2022-10-30T00:56:40;101491.63;;;16.45;100.00
38022;BME280;23832;43.216;27.946;2022-10-30T00:58:43;101483.00;;;16.43;100.00
38022;BME280;23832;43.216;27.946;2022-10-30T01:00:47;101484.22;;;16.40;100.00
38022;BME280;23832;43.216;27.946;2022-10-30T01:02:51;101478.88;;;16.40;100.00
38022;BME280;23832;43.216;27.946;2022-10-30T01:04:53;101479.28;;;16.37;100.00
38022;BME280;23832;43.216;27.946;2022-10-30T01:06:55;101475.78;;;16.37;100.00
38022;BME280;23832;43.216;27.946;2022-10-30T01:08:58;101473.50;;;16.34;100.00
38022;BME280;23832;43.216;27.946;2022-10-30T01:11:02;101471.84;;;16.33;100.00
38022;BME280;23832;43.216;27.946;2022-10-30T01:13:04;101471.41;;;16.29;100.00
38022;BME280;23832;43.216;27.946;2022-10-30T01:15:07;101468.94;;;16.28;100.00
38022;BME280;23832;43.216;27.946;2022-10-30T01:17:13;101465.63;;;16.26;100.00
38022;BME280;23832;43.216;27.946;2022-10-30T01:19:17;101465.00;;;16.24;100.00
38022;BME280;23832;43.216;27.946;2022-10-30T01:21:30;101465.19;;;16.22;100.00
38022;BME280;23832;43.216;27.946;2022-10-30T01:23:35;101465.41;;;16.21;100.00
38022;BME280;23832;43.216;27.946;2022-10-30T01:25:41;101461.09;;;16.20;100.00
38022;BME280;23832;43.216;27.946;2022-10-30T01:27:50;101456.94;;;16.17;100.00
38022;BME280;23832;43.216;27.946;2022-10-30T01:30:00;101451.81;;;16.15;100.00
38022;BME280;23832;43.216;27.946;2022-10-30T01:32:16;101455.69;;;16.13;100.00
38022;BME280;23832;43.216;27.946;2022-10-30T01:34:21;101455.88;;;16.11;100.00
38022;BME280;23832;43.216;27.946;2022-10-30T01:36:29;101461.41;;;16.10;100.00
38022;BME280;23832;43.216;27.946;2022-10-30T01:38:35;101462.41;;;16.09;100.00
38022;BME280;23832;43.216;27.946;2022-10-30T01:40:42;101458.09;;;16.08;100.00
38022;BME280;23832;43.216;27.946;2022-10-30T01:42:44;101454.78;;;16.06;100.00
38022;BME280;23832;43.216;27.946;2022-10-30T01:44:48;101451.50;;;16.04;100.00
38022;BME280;23832;43.216;27.946;2022-10-30T01:46:53;101442.09;;;16.01;100.00
38022;BME280;23832;43.216;27.946;2022-10-30T01:51:20;101445.09;;;15.98;100.00
38022;BME280;23832;43.216;27.946;2022-10-30T01:53:28;101442.00;;;15.95;100.00
38022;BME280;23832;43.216;27.946;2022-10-30T01:55:36;101444.03;;;15.93;100.00
38022;BME280;23832;43.216;27.946;2022-10-30T01:57:43;101441.56;;;15.91;100.00
38022;BME280;23832;43.216;27.946;2022-10-30T01:59:53;101445.41;;;15.88;100.00
38022;BME280;23832;43.216;27.946;2022-10-30T02:01:57;101449.28;;;15.86;100.00
38022;BME280;23832;43.216;27.946;2022-10-30T02:03:58;101450.47;;;15.83;100.00
38022;BME280;23832;43.216;27.946;2022-10-30T02:06:01;101436.72;;;15.80;100.00
38022;BME280;23832;43.216;27.946;2022-10-30T02:08:03;101444.06;;;15.78;100.00
38022;BME280;23832;43.216;27.946;2022-10-30T02:10:05;101453.25;;;15.75;100.00
38022;BME280;23832;43.216;27.946;2022-10-30T02:12:07;101454.44;;;15.73;100.00
38022;BME280;23832;43.216;27.946;2022-10-30T02:14:09;101456.63;;;15.69;100.00
38022;BME280;23832;43.216;27.946;2022-10-30T02:16:12;101454.38;;;15.66;100.00
38022;BME280;23832;43.216;27.946;2022-10-30T02:18:14;101452.72;;;15.65;100.00
38022;BME280;23832;43.216;27.946;2022-10-30T02:20:17;101451.25;;;15.63;100.00
38022;BME280;23832;43.216;27.946;2022-10-30T02:22:19;101448.78;;;15.61;100.00
38022;BME280;23832;43.216;27.946;2022-10-30T02:24:21;101448.28;;;15.57;100.00
38022;BME280;23832;43.216;27.946;2022-10-30T02:26:22;101456.47;;;15.56;100.00
38022;BME280;23832;43.216;27.946;2022-10-30T02:28:24;101454.16;;;15.53;100.00
38022;BME280;23832;43.216;27.946;2022-10-30T02:30:26;101450.88;;;15.51;100.00
38022;BME280;23832;43.216;27.946;2022-10-30T02:32:27;101443.28;;;15.48;100.00
38022;BME280;23832;43.216;27.946;2022-10-30T02:34:29;101437.31;;;15.46;100.00
38022;BME280;23832;43.216;27.946;2022-10-30T02:36:32;101441.34;;;15.42;100.00
38022;BME280;23832;43.216;27.946;2022-10-30T02:38:34;101443.38;;;15.40;100.00
38022;BME280;23832;43.216;27.946;2022-10-30T02:40:35;101437.44;;;15.38;100.00
38022;BME280;23832;43.216;27.946;2022-10-30T02:42:37;101439.41;;;15.36;100.00
38022;BME280;23832;43.216;27.946;2022-10-30T02:44:39;101431.63;;;15.34;100.00
38022;BME280;23832;43.216;27.946;2022-10-30T02:46:40;101433.66;;;15.32;100.00
38022;BME280;23832;43.216;27.946;2022-10-30T02:48:42;101441.19;;;15.28;100.00
38022;BME280;23832;43.216;27.946;2022-10-30T02:50:44;101435.22;;;15.26;100.00
38022;BME280;23832;43.216;27.946;2022-10-30T02:52:47;101434.56;;;15.24;100.00
38022;BME280;23832;43.216;27.946;2022-10-30T02:54:49;101434.13;;;15.21;100.00
38022;BME280;23832;43.216;27.946;2022-10-30T02:56:50;101437.81;;;15.20;100.00
38022;BME280;23832;43.216;27.946;2022-10-30T02:58:53;101438.97;;;15.17;100.00
38022;BME280;23832;43.216;27.946;2022-10-30T03:00:55;101437.69;;;15.13;100.00
38022;BME280;23832;43.216;27.946;2022-10-30T03:02:56;101434.56;;;15.10;100.00
38022;BME280;23832;43.216;27.946;2022-10-30T03:04:58;101436.78;;;15.06;100.00
38022;BME280;23832;43.216;27.946;2022-10-30T03:07:00;101441.63;;;15.02;100.00
38022;BME280;23832;43.216;27.946;2022-10-30T03:09:03;101441.97;;;14.99;100.00
38022;BME280;23832;43.216;27.946;2022-10-30T03:11:05;101439.88;;;14.95;100.00
38022;BME280;23832;43.216;27.946;2022-10-30T03:13:07;101445.56;;;14.92;100.00
38022;BME280;23832;43.216;27.946;2022-10-30T03:15:09;101441.44;;;14.89;100.00
38022;BME280;23832;43.216;27.946;2022-10-30T03:17:11;101437.31;;;14.87;100.00
38022;BME280;23832;43.216;27.946;2022-10-30T03:19:12;101442.63;;;14.87;100.00
38022;BME280;23832;43.216;27.946;2022-10-30T03:21:15;101440.16;;;14.85;100.00
38022;BME280;23832;43.216;27.946;2022-10-30T03:23:17;101436.69;;;14.85;100.00
38022;BME280;23832;43.216;27.946;2022-10-30T03:25:20;101430.69;;;14.83;100.00
38022;BME280;23832;43.216;27.946;2022-10-30T03:27:22;101434.38;;;14.82;100.00
38022;BME280;23832;43.216;27.946;2022-10-30T03:29:24;101433.72;;;14.80;100.00
38022;BME280;23832;43.216;27.946;2022-10-30T03:31:26;101438.22;;;14.79;100.00
38022;BME280;23832;43.216;27.946;2022-10-30T03:33:27;101424.50;;;14.75;100.00
38022;BME280;23832;43.216;27.946;2022-10-30T03:35:29;101437.75;;;14.75;100.00
38022;BME280;23832;43.216;27.946;2022-10-30T03:37:30;101431.16;;;14.71;100.00
38022;BME280;23832;43.216;27.946;2022-10-30T03:39:32;101431.16;;;14.71;100.00
38022;BME280;23832;43.216;27.946;2022-10-30T03:41:35;101424.19;;;14.70;100.00
38022;BME280;23832;43.216;27.946;2022-10-30T03:43:37;101421.09;;;14.67;100.00
38022;BME280;23832;43.216;27.946;2022-10-30T03:45:38;101423.94;;;14.65;100.00
38022;BME280;23832;43.216;27.946;2022-10-30T03:47:40;101425.91;;;14.63;100.00
38022;BME280;23832;43.216;27.946;2022-10-30T03:49:42;101434.06;;;14.62;100.00
38022;BME280;23832;43.216;27.946;2022-10-30T03:51:44;101425.28;;;14.61;100.00
38022;BME280;23832;43.216;27.946;2022-10-30T03:53:45;101420.16;;;14.60;100.00
38022;BME280;23832;43.216;27.946;2022-10-30T03:55:51;101417.69;;;14.58;100.00
38022;BME280;23832;43.216;27.946;2022-10-30T03:57:55;101418.84;;;14.56;100.00
38022;BME280;23832;43.216;27.946;2022-10-30T03:59:57;101408.41;;;14.54;100.00
38022;BME280;23832;43.216;27.946;2022-10-30T04:01:59;101409.44;;;14.53;100.00
38022;BME280;23832;43.216;27.946;2022-10-30T04:04:02;101405.13;;;14.52;100.00
38022;BME280;23832;43.216;27.946;2022-10-30T04:06:03;101410.44;;;14.52;100.00
38022;BME280;23832;43.216;27.946;2022-10-30T04:08:06;101405.31;;;14.51;100.00
38022;BME280;23832;43.216;27.946;2022-10-30T04:10:08;101403.66;;;14.50;100.00
38022;BME280;23832;43.216;27.946;2022-10-30T04:12:10;101410.16;;;14.47;100.00
38022;BME280;23832;43.216;27.946;2022-10-30T04:14:13;101407.50;;;14.47;100.00
38022;BME280;23832;43.216;27.946;2022-10-30T04:16:16;101402.38;;;14.45;100.00
38022;BME280;23832;43.216;27.946;2022-10-30T04:18:18;101401.53;;;14.45;100.00
38022;BME280;23832;43.216;27.946;2022-10-30T04:20:21;101402.50;;;14.44;100.00
38022;BME280;23832;43.216;27.946;2022-10-30T04:22:23;101400.88;;;14.43;100.00
38022;BME280;23832;43.216;27.946;2022-10-30T04:24:25;101406.38;;;14.41;100.00
38022;BME280;23832;43.216;27.946;2022-10-30T04:26:27;101410.66;;;14.42;100.00
38022;BME280;23832;43.216;27.946;2022-10-30T04:28:29;101408.81;;;14.43;100.00
38022;BME280;23832;43.216;27.946;2022-10-30T04:30:32;101407.19;;;14.42;100.00
38022;BME280;23832;43.216;27.946;2022-10-30T04:32:44;101410.66;;;14.42;100.00
38022;BME280;23832;43.216;27.946;2022-10-30T04:34:46;101407.56;;;14.39;100.00
38022;BME280;23832;43.216;27.946;2022-10-30T04:36:50;101405.91;;;14.38;100.00
38022;BME280;23832;43.216;27.946;2022-10-30T04:38:52;101405.25;;;14.36;100.00
38022;BME280;23832;43.216;27.946;2022-10-30T04:40:54;101404.59;;;14.34;100.00
38022;BME280;23832;43.216;27.946;2022-10-30T04:42:56;101409.91;;;14.34;100.00
38022;BME280;23832;43.216;27.946;2022-10-30T04:44:59;101404.59;;;14.34;100.00
38022;BME280;23832;43.216;27.946;2022-10-30T04:47:04;101408.91;;;14.35;100.00
38022;BME280;23832;43.216;27.946;2022-10-30T04:49:06;101410.53;;;14.36;100.00
38022;BME280;23832;43.216;27.946;2022-10-30T04:51:07;101420.81;;;14.39;100.00
38022;BME280;23832;43.216;27.946;2022-10-30T04:53:12;101417.97;;;14.40;100.00
38022;BME280;23832;43.216;27.946;2022-10-30T04:55:14;101410.84;;;14.41;100.00
38022;BME280;23832;43.216;27.946;2022-10-30T04:57:16;101419.09;;;14.46;100.00
38022;BME280;23832;43.216;27.946;2022-10-30T04:59:18;101418.75;;;14.49;100.00
38022;BME280;23832;43.216;27.946;2022-10-30T05:01:20;101421.69;;;14.54;100.00
38022;BME280;23832;43.216;27.946;2022-10-30T05:03:24;101424.00;;;14.57;100.00
38022;BME280;23832;43.216;27.946;2022-10-30T05:05:28;101420.78;;;14.62;100.00
38022;BME280;23832;43.216;27.946;2022-10-30T05:07:30;101420.28;;;14.66;100.00
38022;BME280;23832;43.216;27.946;2022-10-30T05:09:31;101419.91;;;14.69;100.00
38022;BME280;23832;43.216;27.946;2022-10-30T05:11:34;101417.53;;;14.74;100.00
38022;BME280;23832;43.216;27.946;2022-10-30T05:13:36;101422.94;;;14.81;100.00
38022;BME280;23832;43.216;27.946;2022-10-30T05:15:38;101416.53;;;14.90;100.00
38022;BME280;23832;43.216;27.946;2022-10-30T05:17:40;101417.06;;;15.00;100.00
38022;BME280;23832;43.216;27.946;2022-10-30T05:19:43;101411.69;;;15.09;100.00
38022;BME280;23832;43.216;27.946;2022-10-30T05:21:45;101412.06;;;15.20;100.00
38022;BME280;23832;43.216;27.946;2022-10-30T05:23:46;101415.06;;;15.32;100.00
38022;BME280;23832;43.216;27.946;2022-10-30T05:25:49;101409.06;;;15.45;100.00
38022;BME280;23832;43.216;27.946;2022-10-30T05:27:56;101412.94;;;15.57;100.00
38022;BME280;23832;43.216;27.946;2022-10-30T05:29:58;101414.75;;;15.71;100.00
38022;BME280;23832;43.216;27.946;2022-10-30T05:31:59;101396.34;;;15.55;100.00
38022;BME280;23832;43.216;27.946;2022-10-30T05:34:01;101410.91;;;15.95;100.00
38022;BME280;23832;43.216;27.946;2022-10-30T05:36:04;101427.84;;;16.09;100.00
38022;BME280;23832;43.216;27.946;2022-10-30T05:38:06;101415.28;;;16.24;100.00
38022;BME280;23832;43.216;27.946;2022-10-30T05:40:09;101417.06;;;16.38;100.00
38022;BME280;23832;43.216;27.946;2022-10-30T05:42:10;101424.13;;;16.53;100.00
38022;BME280;23832;43.216;27.946;2022-10-30T05:44:12;101424.22;;;16.66;100.00
38022;BME280;23832;43.216;27.946;2022-10-30T05:46:14;101430.31;;;16.81;100.00
38022;BME280;23832;43.216;27.946;2022-10-30T05:48:15;101422.41;;;16.94;100.00
38022;BME280;23832;43.216;27.946;2022-10-30T05:50:18;101426.59;;;17.10;100.00
38022;BME280;23832;43.216;27.946;2022-10-30T05:52:21;101433.66;;;17.31;100.00
38022;BME280;23832;43.216;27.946;2022-10-30T05:54:22;101433.13;;;17.49;100.00
38022;BME280;23832;43.216;27.946;2022-10-30T05:56:24;101430.75;;;17.67;100.00
38022;BME280;23832;43.216;27.946;2022-10-30T05:58:26;101432.88;;;17.85;100.00
38022;BME280;23832;43.216;27.946;2022-10-30T06:00:30;101428.22;;;18.00;100.00
38022;BME280;23832;43.216;27.946;2022-10-30T06:02:39;101427.41;;;18.13;100.00
38022;BME280;23832;43.216;27.946;2022-10-30T06:04:41;101427.41;;;18.26;100.00
38022;BME280;23832;43.216;27.946;2022-10-30T06:06:43;101429.06;;;18.40;100.00
38022;BME280;23832;43.216;27.946;2022-10-30T06:08:46;101431.75;;;18.54;100.00
38022;BME280;23832;43.216;27.946;2022-10-30T06:10:48;101415.50;;;18.68;100.00
38022;BME280;23832;43.216;27.946;2022-10-30T06:12:53;101411.81;;;18.83;100.00
38022;BME280;23832;43.216;27.946;2022-10-30T06:14:55;101373.59;;;18.69;100.00
38022;BME280;23832;43.216;27.946;2022-10-30T06:16:58;101407.22;;;19.10;100.00
38022;BME280;23832;43.216;27.946;2022-10-30T06:19:00;101415.00;;;19.24;100.00
38022;BME280;23832;43.216;27.946;2022-10-30T06:21:01;101407.13;;;19.36;100.00
38022;BME280;23832;43.216;27.946;2022-10-30T06:23:03;101414.91;;;19.51;100.00
38022;BME280;23832;43.216;27.946;2022-10-30T06:25:08;101406.81;;;19.64;100.00
38022;BME280;23832;43.216;27.946;2022-10-30T06:27:10;101412.94;;;19.78;100.00
38022;BME280;23832;43.216;27.946;2022-10-30T06:29:12;101413.06;;;19.90;100.00
38022;BME280;23832;43.216;27.946;2022-10-30T06:31:14;101419.56;;;20.00;100.00
38022;BME280;23832;43.216;27.946;2022-10-30T06:33:15;101411.88;;;20.10;100.00
38022;BME280;23832;43.216;27.946;2022-10-30T06:35:17;101410.00;;;20.18;100.00
38022;BME280;23832;43.216;27.946;2022-10-30T06:37:19;101410.31;;;20.28;100.00
38022;BME280;23832;43.216;27.946;2022-10-30T06:39:20;101403.00;;;20.41;100.00
38022;BME280;23832;43.216;27.946;2022-10-30T06:41:24;101398.97;;;20.57;100.00
38022;BME280;23832;43.216;27.946;2022-10-30T06:43:25;101405.03;;;20.71;100.00
38022;BME280;23832;43.216;27.946;2022-10-30T06:45:27;101406.56;;;20.85;100.00
38022;BME280;23832;43.216;27.946;2022-10-30T06:47:33;101410.72;;;21.00;100.00
38022;BME280;23832;43.216;27.946;2022-10-30T06:49:35;101413.63;;;21.16;100.00
38022;BME280;23832;43.216;27.946;2022-10-30T06:51:36;101413.06;;;21.33;100.00
38022;BME280;23832;43.216;27.946;2022-10-30T06:53:38;101414.31;;;21.48;100.00
38022;BME280;23832;43.216;27.946;2022-10-30T06:55:39;101408.09;;;21.66;100.00
38022;BME280;23832;43.216;27.946;2022-10-30T06:57:42;101407.66;;;21.81;99.08
38022;BME280;23832;43.216;27.946;2022-10-30T06:59:47;101398.38;;;21.95;95.24
38022;BME280;23832;43.216;27.946;2022-10-30T07:01:48;101400.88;;;22.08;92.01
38022;BME280;23832;43.216;27.946;2022-10-30T07:03:50;101400.22;;;22.25;91.59
38022;BME280;23832;43.216;27.946;2022-10-30T07:05:51;101397.66;;;22.42;91.01
38022;BME280;23832;43.216;27.946;2022-10-30T07:07:54;101392.97;;;22.60;89.58
38022;BME280;23832;43.216;27.946;2022-10-30T07:09:56;101390.97;;;22.79;86.83
38022;BME280;23832;43.216;27.946;2022-10-30T07:11:58;101388.19;;;22.98;85.91
38022;BME280;23832;43.216;27.946;2022-10-30T07:14:01;101384.03;;;23.18;83.88
38022;BME280;23832;43.216;27.946;2022-10-30T07:16:03;101385.16;;;23.34;80.51
38022;BME280;23832;43.216;27.946;2022-10-30T07:18:04;101381.47;;;23.52;77.64
38022;BME280;23832;43.216;27.946;2022-10-30T07:20:07;101373.72;;;23.67;75.51
38022;BME280;23832;43.216;27.946;2022-10-30T07:22:11;101374.81;;;23.83;72.28
38022;BME280;23832;43.216;27.946;2022-10-30T07:24:13;101373.66;;;23.96;69.76
38022;BME280;23832;43.216;27.946;2022-10-30T07:26:15;101367.56;;;24.00;66.41
38022;BME280;23832;43.216;27.946;2022-10-30T07:28:16;101378.25;;;24.12;67.03
38022;BME280;23832;43.216;27.946;2022-10-30T07:30:20;101377.91;;;24.25;66.66
38022;BME280;23832;43.216;27.946;2022-10-30T07:32:22;101373.59;;;24.41;66.89
38022;BME280;23832;43.216;27.946;2022-10-30T07:34:23;101361.97;;;24.57;66.29
38022;BME280;23832;43.216;27.946;2022-10-30T07:36:25;101366.84;;;24.77;65.96
38022;BME280;23832;43.216;27.946;2022-10-30T07:38:27;101361.69;;;24.98;65.71
38022;BME280;23832;43.216;27.946;2022-10-30T07:40:28;101359.59;;;25.22;65.29
38022;BME280;23832;43.216;27.946;2022-10-30T07:42:30;101361.19;;;25.44;63.93
38022;BME280;23832;43.216;27.946;2022-10-30T07:44:32;101352.22;;;25.66;62.24
38022;BME280;23832;43.216;27.946;2022-10-30T07:46:36;101360.25;;;25.88;61.29
38022;BME280;23832;43.216;27.946;2022-10-30T07:48:37;101341.22;;;26.04;58.67
38022;BME280;23832;43.216;27.946;2022-10-30T07:50:39;101349.50;;;26.25;58.37
38022;BME280;23832;43.216;27.946;2022-10-30T07:52:41;101340.72;;;26.45;57.73
38022;BME280;23832;43.216;27.946;2022-10-30T07:54:43;101336.78;;;26.68;59.43
38022;BME280;23832;43.216;27.946;2022-10-30T07:56:45;101337.44;;;26.90;59.14
38022;BME280;23832;43.216;27.946;2022-10-30T07:58:46;101339.16;;;27.11;58.65
38022;BME280;23832;43.216;27.946;2022-10-30T08:00:48;101327.84;;;27.30;57.84
38022;BME280;23832;43.216;27.946;2022-10-30T08:02:54;101330.31;;;27.47;57.27
38022;BME280;23832;43.216;27.946;2022-10-30T08:04:57;101323.31;;;27.66;56.46
38022;BME280;23832;43.216;27.946;2022-10-30T08:06:59;101318.44;;;27.83;54.43
38022;BME280;23832;43.216;27.946;2022-10-30T08:09:01;101319.78;;;28.01;53.36
38022;BME280;23832;43.216;27.946;2022-10-30T08:11:02;101321.91;;;28.19;52.42
38022;BME280;23832;43.216;27.946;2022-10-30T08:13:04;101317.84;;;28.37;51.55
38022;BME280;23832;43.216;27.946;2022-10-30T08:15:06;101312.91;;;28.54;50.91
38022;BME280;23832;43.216;27.946;2022-10-30T08:17:08;101312.00;;;28.74;50.27
38022;BME280;23832;43.216;27.946;2022-10-30T08:19:12;101307.09;;;28.92;48.56
38022;BME280;23832;43.216;27.946;2022-10-30T08:21:13;101311.06;;;29.09;48.01
38022;BME280;23832;43.216;27.946;2022-10-30T08:23:15;101304.22;;;29.22;46.84
38022;BME280;23832;43.216;27.946;2022-10-30T08:25:20;101308.16;;;29.40;46.75
38022;BME280;23832;43.216;27.946;2022-10-30T08:27:22;101307.53;;;29.58;46.38
38022;BME280;23832;43.216;27.946;2022-10-30T08:29:24;101307.63;;;29.77;45.88
38022;BME280;23832;43.216;27.946;2022-10-30T08:31:26;101305.59;;;29.93;44.69
38022;BME280;23832;43.216;27.946;2022-10-30T08:33:27;101303.53;;;30.09;44.32
38022;BME280;23832;43.216;27.946;2022-10-30T08:35:32;101299.88;;;30.23;43.87
38022;BME280;23832;43.216;27.946;2022-10-30T08:37:34;101300.50;;;30.39;44.05
38022;BME280;23832;43.216;27.946;2022-10-30T08:39:36;101296.53;;;30.56;43.51
38022;BME280;23832;43.216;27.946;2022-10-30T08:41:38;101294.41;;;30.71;42.90
38022;BME280;23832;43.216;27.946;2022-10-30T08:43:39;101293.13;;;30.88;42.41
38022;BME280;23832;43.216;27.946;2022-10-30T08:45:41;101289.38;;;31.02;42.16
38022;BME280;23832;43.216;27.946;2022-10-30T08:47:43;101283.69;;;31.18;41.87
38022;BME280;23832;43.216;27.946;2022-10-30T08:49:45;101286.72;;;31.35;41.72
38022;BME280;23832;43.216;27.946;2022-10-30T08:51:48;101292.44;;;31.52;41.47
38022;BME280;23832;43.216;27.946;2022-10-30T08:53:50;101286.16;;;31.71;41.00
38022;BME280;23832;43.216;27.946;2022-10-30T08:55:51;101284.50;;;31.88;40.35
38022;BME280;23832;43.216;27.946;2022-10-30T08:57:53;101276.25;;;32.07;40.00
38022;BME280;23832;43.216;27.946;2022-10-30T08:59:55;101281.59;;;32.26;39.84
38022;BME280;23832;43.216;27.946;2022-10-30T09:01:57;101273.38;;;32.45;39.36
38022;BME280;23832;43.216;27.946;2022-10-30T09:03:59;101271.09;;;32.61;38.30
38022;BME280;23832;43.216;27.946;2022-10-30T09:06:00;101267.75;;;32.78;38.55
38022;BME280;23832;43.216;27.946;2022-10-30T09:08:04;101275.81;;;32.96;38.36
38022;BME280;23832;43.216;27.946;2022-10-30T09:10:06;101269.09;;;33.16;38.06
38022;BME280;23832;43.216;27.946;2022-10-30T09:12:08;101270.00;;;33.34;37.17
38022;BME280;23832;43.216;27.946;2022-10-30T09:14:09;101265.16;;;33.45;36.06
38022;BME280;23832;43.216;27.946;2022-10-30T09:16:11;101266.97;;;33.58;35.93
38022;BME280;23832;43.216;27.946;2022-10-30T09:18:13;101261.88;;;33.65;34.88
38022;BME280;23832;43.216;27.946;2022-10-30T09:20:15;101249.88;;;33.75;34.96
38022;BME280;23832;43.216;27.946;2022-10-30T09:22:17;101250.72;;;33.84;34.35
38022;BME280;23832;43.216;27.946;2022-10-30T09:24:20;101245.81;;;33.95;34.44
38022;BME280;23832;43.216;27.946;2022-10-30T09:26:22;101238.44;;;34.04;34.00
38022;BME280;23832;43.216;27.946;2022-10-30T09:28:23;101243.00;;;34.17;34.01
38022;BME280;23832;43.216;27.946;2022-10-30T09:30:25;101235.47;;;34.31;33.98
38022;BME280;23832;43.216;27.946;2022-10-30T09:32:27;101237.31;;;34.45;33.81
38022;BME280;23832;43.216;27.946;2022-10-30T09:34:28;101234.59;;;34.62;33.71
38022;BME280;23832;43.216;27.946;2022-10-30T09:36:30;101227.69;;;34.82;33.83
38022;BME280;23832;43.216;27.946;2022-10-30T09:38:32;101219.00;;;34.97;32.28
38022;BME280;23832;43.216;27.946;2022-10-30T09:40:39;101219.97;;;35.10;32.13
38022;BME280;23832;43.216;27.946;2022-10-30T09:42:43;101216.41;;;35.18;31.51
38022;BME280;23832;43.216;27.946;2022-10-30T09:44:47;101211.56;;;35.23;30.27
38022;BME280;23832;43.216;27.946;2022-10-30T09:46:55;101209.94;;;35.22;30.05
38022;BME280;23832;43.216;27.946;2022-10-30T09:49:04;101201.06;;;35.25;30.20
38022;BME280;23832;43.216;27.946;2022-10-30T09:51:16;101190.91;;;35.35;31.02
38022;BME280;23832;43.216;27.946;2022-10-30T09:53:24;101195.91;;;35.50;31.58
38022;BME280;23832;43.216;27.946;2022-10-30T09:55:32;101194.38;;;35.70;30.97
38022;BME280;23832;43.216;27.946;2022-10-30T09:57:39;101190.22;;;35.93;31.17
38022;BME280;23832;43.216;27.946;2022-10-30T09:59:44;101190.09;;;36.19;31.11
38022;BME280;23832;43.216;27.946;2022-10-30T10:01:53;101186.59;;;36.39;30.09
38022;BME280;23832;43.216;27.946;2022-10-30T10:03:59;101183.47;;;36.50;28.73
38022;BME280;23832;43.216;27.946;2022-10-30T10:06:01;101175.22;;;36.50;28.25
38022;BME280;23832;43.216;27.946;2022-10-30T10:08:05;101170.53;;;36.50;28.39
38022;BME280;23832;43.216;27.946;2022-10-30T10:10:12;101167.16;;;36.45;28.07
38022;BME280;23832;43.216;27.946;2022-10-30T10:12:17;101173.81;;;36.44;28.15
38022;BME280;23832;43.216;27.946;2022-10-30T10:14:25;101170.19;;;36.52;28.34
38022;BME280;23832;43.216;27.946;2022-10-30T10:16:29;101168.28;;;36.64;28.61
38022;BME280;23832;43.216;27.946;2022-10-30T10:18:32;101167.00;;;36.83;28.04
38022;BME280;23832;43.216;27.946;2022-10-30T10:20:36;101153.59;;;37.02;28.30
38022;BME280;23832;43.216;27.946;2022-10-30T10:22:42;101162.09;;;37.09;26.79
38022;BME280;23832;43.216;27.946;2022-10-30T10:24:46;101153.09;;;37.21;27.44
38022;BME280;23832;43.216;27.946;2022-10-30T10:26:49;101152.66;;;37.31;27.85
38022;BME280;23832;43.216;27.946;2022-10-30T10:29:05;101148.66;;;37.41;26.89
38022;BME280;23832;43.216;27.946;2022-10-30T10:31:18;101140.66;;;37.48;26.86
38022;BME280;23832;43.216;27.946;2022-10-30T10:33:30;101144.56;;;37.59;27.33